Hibbing, MN

10:54 PM CST on January 27, 2015 (GMT -0600)
Chisholm-hibbing | Change Station
CLOSE
Current Station
Airport
Location: Hibbing,
Elevation: 1352 ft
Nearby Weather Stations

Elev 1352 ft 47.39 °N, 92.84 °W | Updated 25 minutes ago

Overcast
Overcast
28 °F
Feels Like 19 °F
N
9
Wind Variable Wind from SSE

Today
High -- | Low -- °F
--% Chance of Precip.
Yesterday
High -- | Low -- °F
Precip. -- in
7:43 AM 5:05 PM
First Quarter, 61% visible
Pressure 30.05 in
Visibility 10.0 miles
Clouds Mostly Cloudy 1400 ft
Overcast 10000 ft
Windchill 19 °F
Dew Point 21 °F
Humidity 75%
Rainfall 0.00 in
Snow Depth Not available.
UV 0 out of 12
Pollen .10 out of 12
Air Quality Not available.
Flu Activity Not available.
SPECI KHIB 280429Z AUTO 16008KT 10SM BKN014 OVC100 M02/M06 A3005 RMK AO2 T10221061

More Conditions Fewer Conditions

Pressure 30.05 in
Visibility 10.0 miles
Clouds Mostly Cloudy 1400 ft
Overcast 10000 ft
Windchill 19 °F
Dew Point 21 °F
Humidity 75%
Rainfall 0.00 in
Snow Depth Not available.
UV 0 out of 12
Pollen .10 out of 12
Air Quality Not available.
Flu Activity Not available.
SPECI KHIB 280429Z AUTO 16008KT 10SM BKN014 OVC100 M02/M06 A3005 RMK AO2 T10221061

More Conditions Fewer Conditions

Nowcast | as of 9:05 PM CST on January 27, 2015

A narrow band of snow...capable of producing localized snowfall up to an inch...will move across far northern Minnesota tonight. As of 9 PM...then band extended from near International Falls to Vermillion Lake. The band was about 8 miles wide...and will slowly move east and lift north into the early morning hours. Some areas that may be impacted include Crane Lake...and northern portions of lake and Cook counties.

×

10-Day Weather Forecast

Almanac

Astronomy

Jan. 27, 2015 Rise Set
Actual Time
Civil Twilight
Nautical Twilight
Astronomical Twilight
Moon
Length of Visible Light
Length of Day
Tomorrow will be .
, % of the Moon is Illuminated

Today's Extremes

State Highs State Lows

Community

WunderPhotos

Upload Photos

1,791,102 photos uploaded!

WunderBlogs® & News

Nearby

Air Quality

  Air Quality AQ Index Pollutant
Not available.

Snow Depth

Station Depth Elevation

Earthquake Activity

City Distance Mag. Time & Date
Minimum magnitude displayed is 2.5.

Coastal Water Temperatures

Place Temperature

Nearby Weather Stations